createdAt,value
2023-04-27T00:01:42.288Z,9.35
2023-04-27T00:04:09.531Z,12.95
2023-04-27T00:06:36.965Z,14.27
2023-04-27T00:09:04.720Z,10.15
2023-04-27T00:11:31.896Z,14.18
2023-04-27T00:13:58.921Z,15.10
2023-04-27T00:16:26.321Z,10.13
2023-04-27T00:18:53.268Z,11.93
2023-04-27T00:21:20.409Z,11.43
2023-04-27T00:23:47.422Z,9.48
2023-04-27T00:26:14.457Z,10.85
2023-04-27T00:28:44.374Z,14.00
2023-04-27T00:31:11.584Z,10.05
2023-04-27T00:33:38.721Z,12.38
2023-04-27T00:36:06.268Z,13.82
2023-04-27T00:38:33.243Z,10.85
2023-04-27T00:41:07.087Z,10.82
2023-04-27T00:43:40.931Z,11.15
2023-04-27T00:46:08.522Z,10.52
2023-04-27T00:48:35.833Z,13.98
2023-04-27T00:51:02.802Z,8.27
2023-04-27T00:53:29.764Z,12.07
2023-04-27T00:55:58.053Z,9.93
2023-04-27T00:58:25.276Z,13.13
2023-04-27T01:00:52.809Z,8.82
2023-04-27T01:03:20.082Z,10.90
2023-04-27T01:05:47.363Z,10.32
2023-04-27T01:08:14.750Z,11.10
2023-04-27T01:10:42.352Z,12.07
2023-04-27T01:13:10.984Z,12.10
2023-04-27T01:15:38.415Z,13.90
2023-04-27T01:18:10.024Z,12.43
2023-04-27T01:20:39.113Z,10.98
2023-04-27T01:23:06.482Z,11.07
2023-04-27T01:25:33.593Z,8.25
2023-04-27T01:28:03.067Z,10.40
2023-04-27T01:30:30.480Z,11.77
2023-04-27T01:32:59.210Z,10.07
2023-04-27T01:35:28.255Z,8.35
2023-04-27T01:38:00.077Z,10.75
2023-04-27T01:40:27.122Z,8.70
2023-04-27T01:42:54.071Z,14.13
2023-04-27T01:45:21.250Z,9.77
2023-04-27T01:47:48.218Z,12.60
2023-04-27T01:50:15.251Z,10.75
2023-04-27T01:52:42.186Z,9.38
2023-04-27T01:55:09.382Z,8.60
2023-04-27T01:57:37.711Z,11.85
2023-04-27T02:00:05.839Z,10.70
2023-04-27T02:02:47.934Z,12.02
2023-04-27T02:05:15.034Z,11.48
2023-04-27T02:07:41.987Z,12.85
2023-04-27T02:10:09.394Z,12.20
2023-04-27T02:12:36.578Z,13.63
2023-04-27T02:15:04.089Z,12.77
2023-04-27T02:17:31.889Z,13.38
2023-04-27T02:19:58.926Z,11.65
2023-04-27T02:22:27.425Z,12.65
2023-04-27T02:24:54.403Z,14.18
2023-04-27T02:27:21.444Z,13.55
2023-04-27T02:29:48.922Z,16.38
2023-04-27T02:32:16.408Z,12.43
2023-04-27T02:34:43.886Z,13.95
2023-04-27T02:37:11.252Z,17.13
2023-04-27T02:39:38.250Z,12.73
2023-04-27T02:42:06.832Z,13.45
2023-04-27T02:44:33.870Z,13.13
2023-04-27T02:47:01.313Z,11.43
2023-04-27T02:49:28.290Z,13.15
2023-04-27T02:51:55.256Z,20.13
2023-04-27T02:54:22.203Z,9.90
2023-04-27T02:56:49.361Z,14.85
2023-04-27T02:59:16.380Z,16.75
2023-04-27T03:01:43.606Z,17.20
2023-04-27T03:04:11.118Z,10.82
2023-04-27T03:06:38.351Z,14.13
2023-04-27T03:09:05.536Z,17.13
2023-04-27T03:11:32.511Z,13.85
2023-04-27T03:13:59.478Z,16.15
2023-04-27T03:16:26.513Z,14.32
2023-04-27T03:18:53.549Z,16.40
2023-04-27T03:21:20.566Z,13.05
2023-04-27T03:23:49.455Z,17.75
2023-04-27T03:26:16.615Z,16.05
2023-04-27T03:28:43.573Z,16.27
2023-04-27T03:31:11.983Z,16.85
2023-04-27T03:33:39.176Z,13.25
2023-04-27T03:36:06.811Z,12.38
2023-04-27T03:38:33.904Z,15.82
2023-04-27T03:41:01.194Z,13.98
2023-04-27T03:43:28.416Z,13.93
2023-04-27T03:45:55.524Z,18.35
2023-04-27T03:48:22.648Z,16.40
2023-04-27T03:50:51.957Z,19.15
2023-04-27T03:53:19.256Z,13.98
2023-04-27T03:55:46.745Z,14.93
2023-04-27T03:58:14.759Z,15.15
2023-04-27T04:01:00.730Z,17.85
2023-04-27T04:03:28.423Z,16.65
2023-04-27T04:05:55.475Z,18.15
2023-04-27T04:08:22.598Z,13.15
2023-04-27T04:10:49.582Z,18.50
2023-04-27T04:13:16.735Z,22.15
2023-04-27T04:15:43.735Z,21.30
2023-04-27T04:18:10.986Z,18.75
2023-04-27T04:20:37.970Z,16.23
2023-04-27T04:23:05.027Z,15.65
2023-04-27T04:25:32.988Z,15.40
2023-04-27T04:28:00.115Z,14.43
2023-04-27T04:30:27.663Z,17.42
2023-04-27T04:32:55.456Z,16.65
2023-04-27T04:35:22.608Z,16.17
2023-04-27T04:37:50.131Z,17.85
2023-04-27T04:40:17.441Z,19.42
2023-04-27T04:42:44.416Z,18.25
2023-04-27T04:45:11.966Z,16.75
2023-04-27T04:47:39.789Z,21.30
2023-04-27T04:50:07.706Z,27.27
2023-04-27T04:52:35.454Z,21.30
2023-04-27T04:55:02.498Z,23.30
2023-04-27T04:57:31.022Z,21.85
2023-04-27T04:59:58.083Z,29.42
2023-04-27T05:02:25.246Z,29.52
2023-04-27T05:04:52.645Z,28.63
2023-04-27T05:07:24.116Z,31.42
2023-04-27T05:09:52.341Z,29.13
2023-04-27T05:12:19.354Z,26.20
2023-04-27T05:14:46.321Z,27.90
2023-04-27T05:17:13.406Z,26.63
2023-04-27T05:19:40.479Z,29.13
2023-04-27T05:22:07.499Z,31.30
2023-04-27T05:24:34.579Z,26.80
2023-04-27T05:27:02.390Z,27.92
2023-04-27T05:29:29.624Z,30.38
2023-04-27T05:31:56.666Z,30.33
2023-04-27T05:34:23.675Z,30.35
2023-04-27T05:36:50.727Z,28.77
2023-04-27T05:39:17.651Z,28.20
2023-04-27T05:41:44.681Z,33.88
2023-04-27T05:44:11.639Z,28.48
2023-04-27T05:46:38.963Z,30.55
2023-04-27T05:49:06.144Z,24.25
2023-04-27T05:51:33.574Z,30.85
2023-04-27T05:54:02.133Z,31.65
2023-04-27T05:56:29.182Z,31.65
2023-04-27T05:58:56.167Z,32.88
2023-04-27T06:01:23.724Z,30.75
2023-04-27T06:03:50.961Z,31.52
2023-04-27T06:06:18.039Z,29.73
2023-04-27T06:08:45.056Z,30.65
2023-04-27T06:11:12.330Z,29.38
2023-04-27T06:13:39.282Z,28.25
2023-04-27T06:16:06.404Z,33.17
2023-04-27T06:18:33.409Z,32.03
2023-04-27T06:21:01.957Z,35.00
2023-04-27T06:23:29.301Z,26.08
2023-04-27T06:25:56.359Z,27.80
2023-04-27T06:28:23.422Z,31.92
2023-04-27T06:30:50.396Z,36.17
2023-04-27T06:33:17.610Z,30.60
2023-04-27T06:35:47.365Z,30.23
2023-04-27T06:40:41.830Z,26.85
2023-04-27T06:43:08.877Z,29.77
2023-04-27T06:45:36.353Z,31.20
2023-04-27T06:48:03.585Z,27.67
2023-04-27T06:50:31.039Z,33.05
2023-04-27T06:52:58.113Z,27.10
2023-04-27T06:55:25.363Z,27.63
2023-04-27T06:57:52.409Z,25.65
2023-04-27T07:00:20.148Z,27.35
2023-04-27T07:02:47.226Z,26.10
2023-04-27T07:05:14.421Z,26.33
2023-04-27T07:07:41.531Z,25.40
2023-04-27T07:10:09.367Z,26.60
2023-04-27T07:12:37.399Z,24.42
2023-04-27T07:15:06.661Z,26.10
2023-04-27T07:17:34.011Z,20.33
2023-04-27T07:20:05.377Z,26.27
2023-04-27T07:22:33.148Z,21.40
2023-04-27T07:25:00.162Z,19.75
2023-04-27T07:27:27.604Z,28.70
2023-04-27T07:29:54.949Z,22.90
2023-04-27T07:32:22.902Z,23.75
2023-04-27T07:34:54.140Z,22.70
2023-04-27T07:37:22.450Z,23.33
2023-04-27T07:39:50.520Z,23.40
2023-04-27T07:42:18.627Z,23.98
2023-04-27T07:44:45.585Z,22.50
2023-04-27T07:47:13.678Z,21.15
2023-04-27T07:49:40.722Z,17.08
2023-04-27T07:52:07.706Z,20.48
2023-04-27T07:54:35.334Z,15.95
2023-04-27T07:57:02.857Z,19.63
2023-04-27T07:59:30.503Z,19.95
2023-04-27T08:02:10.810Z,18.85
2023-04-27T08:04:44.987Z,19.92
2023-04-27T08:07:12.813Z,18.42
2023-04-27T08:09:39.939Z,15.10
2023-04-27T08:12:07.081Z,22.17
2023-04-27T08:14:37.173Z,17.63
2023-04-27T08:17:04.225Z,21.23
2023-04-27T08:19:31.240Z,23.63
2023-04-27T08:21:58.211Z,17.17
2023-04-27T08:24:25.136Z,18.67
2023-04-27T08:26:52.082Z,18.65
2023-04-27T08:29:26.808Z,17.25
2023-04-27T08:31:58.134Z,16.13
2023-04-27T08:34:25.878Z,19.13
2023-04-27T08:36:53.520Z,19.50
2023-04-27T08:39:20.781Z,18.92
2023-04-27T08:41:47.750Z,18.85
2023-04-27T08:44:15.027Z,14.75
2023-04-27T08:46:42.113Z,14.48
2023-04-27T08:49:10.101Z,14.85
2023-04-27T08:51:37.206Z,16.50
2023-04-27T08:54:04.210Z,18.90
2023-04-27T08:56:31.575Z,18.73
2023-04-27T08:58:58.756Z,18.80
2023-04-27T09:01:27.614Z,14.52
2023-04-27T09:04:02.155Z,11.70
2023-04-27T09:06:33.166Z,15.32
2023-04-27T09:09:00.547Z,15.40
2023-04-27T09:11:39.894Z,14.30
2023-04-27T09:14:20.730Z,16.88
2023-04-27T09:16:57.532Z,15.90
2023-04-27T09:19:28.798Z,16.23
2023-04-27T09:22:06.432Z,12.45
2023-04-27T09:24:33.841Z,12.80
2023-04-27T09:27:01.196Z,14.95
2023-04-27T09:29:35.453Z,15.85
2023-04-27T09:32:02.819Z,15.95
2023-04-27T09:34:40.929Z,12.40
2023-04-27T09:37:08.111Z,14.77
2023-04-27T09:39:35.436Z,15.70
2023-04-27T09:42:04.597Z,15.75
2023-04-27T09:44:32.141Z,14.60
2023-04-27T09:46:59.876Z,14.32
2023-04-27T09:49:27.458Z,16.13
2023-04-27T09:51:57.076Z,12.90
2023-04-27T09:57:03.679Z,11.38
2023-04-27T09:59:33.513Z,14.30
2023-04-27T10:02:07.330Z,14.07
2023-04-27T10:05:04.833Z,12.45
2023-04-27T10:07:31.871Z,12.77
2023-04-27T10:10:02.020Z,11.95
2023-04-27T10:12:33.697Z,18.05
2023-04-27T10:15:01.261Z,11.30
2023-04-27T10:17:32.269Z,12.13
2023-04-27T10:20:00.695Z,14.02
2023-04-27T10:22:41.582Z,13.15
2023-04-27T10:25:22.704Z,18.10
2023-04-27T10:27:59.102Z,15.32
2023-04-27T10:30:36.386Z,11.30
2023-04-27T10:33:07.771Z,11.85
2023-04-27T10:35:38.197Z,12.38
2023-04-27T10:38:09.453Z,10.60
2023-04-27T10:40:37.532Z,10.15
2023-04-27T10:43:16.036Z,14.82
2023-04-27T10:45:43.542Z,11.00
2023-04-27T10:48:13.333Z,12.10
2023-04-27T10:50:40.685Z,9.98
2023-04-27T10:53:08.185Z,11.10
2023-04-27T10:55:35.516Z,13.20
2023-04-27T10:58:02.794Z,11.02
2023-04-27T11:00:37.797Z,11.95
2023-04-27T11:03:19.710Z,10.52
2023-04-27T11:05:48.203Z,13.40
2023-04-27T11:08:16.805Z,13.68
2023-04-27T11:10:45.032Z,8.53
2023-04-27T11:13:14.256Z,14.27
2023-04-27T11:15:47.798Z,10.85
2023-04-27T11:18:16.063Z,8.70
2023-04-27T11:20:44.825Z,11.63
2023-04-27T11:23:11.737Z,10.57
2023-04-27T11:25:39.079Z,9.73
2023-04-27T11:28:06.438Z,9.05
2023-04-27T11:30:33.612Z,12.82
2023-04-27T11:33:08.453Z,10.45
2023-04-27T11:35:35.542Z,10.32
2023-04-27T11:38:02.596Z,9.05
2023-04-27T11:40:29.582Z,8.23
2023-04-27T11:42:59.915Z,10.00
2023-04-27T11:45:30.327Z,8.80
2023-04-27T11:48:01.129Z,9.73
2023-04-27T11:50:28.174Z,7.30
2023-04-27T11:52:56.216Z,10.90
2023-04-27T11:55:24.681Z,9.40
2023-04-27T11:57:57.245Z,9.57
2023-04-27T12:00:25.135Z,10.13
2023-04-27T12:02:52.238Z,8.15
2023-04-27T12:05:20.210Z,9.30
2023-04-27T12:07:47.397Z,9.80
2023-04-27T12:10:14.574Z,8.25
2023-04-27T12:12:41.849Z,11.05
2023-04-27T12:15:09.449Z,14.00
2023-04-27T12:17:36.439Z,9.57
2023-04-27T12:20:03.827Z,7.38
2023-04-27T12:22:30.827Z,11.65
2023-04-27T12:24:57.898Z,11.38
2023-04-27T12:27:25.018Z,7.88
2023-04-27T12:29:54.284Z,13.63
2023-04-27T12:32:21.380Z,12.45
2023-04-27T12:34:48.334Z,9.80
2023-04-27T12:37:15.313Z,10.75
2023-04-27T12:39:42.335Z,8.50
2023-04-27T12:42:09.253Z,8.45
2023-04-27T12:44:36.501Z,10.55
2023-04-27T12:47:04.376Z,10.40
2023-04-27T12:49:31.379Z,10.20
2023-04-27T12:51:58.642Z,7.63
2023-04-27T12:54:25.765Z,11.80
2023-04-27T12:56:52.752Z,10.50
2023-04-27T12:59:19.733Z,9.50
2023-04-27T13:01:46.893Z,10.60
2023-04-27T13:04:19.644Z,10.50
2023-04-27T13:06:47.511Z,10.90
2023-04-27T13:09:14.519Z,8.80
2023-04-27T13:11:41.570Z,13.02
2023-04-27T13:14:08.566Z,12.98
2023-04-27T13:16:35.634Z,13.63
2023-04-27T13:19:02.689Z,8.93
2023-04-27T13:21:29.728Z,14.00
2023-04-27T13:23:59.565Z,12.32
2023-04-27T13:26:27.279Z,8.05
2023-04-27T13:28:54.317Z,10.23
2023-04-27T13:31:21.852Z,11.27
2023-04-27T13:33:48.880Z,12.93
2023-04-27T13:36:15.832Z,12.55
2023-04-27T13:38:42.810Z,8.43
2023-04-27T13:41:09.910Z,11.75
2023-04-27T13:43:37.160Z,11.48
2023-04-27T13:46:04.914Z,8.98
2023-04-27T13:48:32.216Z,8.68
2023-04-27T13:50:59.458Z,12.95
2023-04-27T13:53:27.053Z,12.13
2023-04-27T13:55:54.914Z,10.10
2023-04-27T13:58:23.726Z,10.20
2023-04-27T14:00:53.137Z,10.55
2023-04-27T14:03:20.407Z,18.58
2023-04-27T14:05:49.084Z,16.00
2023-04-27T14:08:16.124Z,12.02
2023-04-27T14:10:43.318Z,12.20
2023-04-27T14:13:10.239Z,12.00
2023-04-27T14:15:37.601Z,9.27
2023-04-27T14:18:08.146Z,14.05
2023-04-27T14:20:36.057Z,13.35
2023-04-27T14:23:04.187Z,13.57
2023-04-27T14:25:33.042Z,13.70
2023-04-27T14:28:05.056Z,14.17
2023-04-27T14:30:32.594Z,13.77
2023-04-27T14:32:59.741Z,13.30
2023-04-27T14:35:27.676Z,15.50
2023-04-27T14:37:56.973Z,18.23
2023-04-27T14:40:24.017Z,17.17
2023-04-27T14:42:51.134Z,13.25
2023-04-27T14:45:19.143Z,13.20
2023-04-27T14:47:46.214Z,13.50
2023-04-27T14:50:13.290Z,14.35
2023-04-27T14:52:40.376Z,11.90
2023-04-27T14:55:07.805Z,13.90
2023-04-27T14:57:35.596Z,12.50
2023-04-27T15:00:05.893Z,15.25
2023-04-27T15:02:34.174Z,13.18
2023-04-27T15:05:02.001Z,13.50
2023-04-27T15:07:29.130Z,20.25
2023-04-27T15:09:56.066Z,13.18
2023-04-27T15:12:23.075Z,13.88
2023-04-27T15:14:51.861Z,14.38
2023-04-27T15:17:18.897Z,13.73
2023-04-27T15:19:45.879Z,12.55
2023-04-27T15:22:15.084Z,15.25
2023-04-27T15:24:42.043Z,14.20
2023-04-27T15:27:09.952Z,17.23
2023-04-27T15:29:37.406Z,12.52
2023-04-27T15:32:04.655Z,18.55
2023-04-27T15:34:32.014Z,13.68
2023-04-27T15:36:59.013Z,11.02
2023-04-27T15:39:27.399Z,12.80
2023-04-27T15:41:54.575Z,13.90
2023-04-27T15:44:21.485Z,17.73
2023-04-27T15:46:48.692Z,14.48
2023-04-27T15:49:16.513Z,13.00
2023-04-27T15:51:43.607Z,15.65
2023-04-27T15:54:10.896Z,14.13
2023-04-27T15:56:37.865Z,17.17
2023-04-27T15:59:04.987Z,16.45
2023-04-27T16:01:32.098Z,17.83
2023-04-27T16:03:59.268Z,17.00
2023-04-27T16:06:33.568Z,16.65
2023-04-27T16:09:01.411Z,18.45
2023-04-27T16:11:28.342Z,15.90
2023-04-27T16:13:55.310Z,14.18
2023-04-27T16:16:22.322Z,14.30
2023-04-27T16:18:49.375Z,16.58
2023-04-27T16:21:16.842Z,18.27
2023-04-27T16:23:43.842Z,15.73
2023-04-27T16:26:11.276Z,15.52
2023-04-27T16:28:38.286Z,17.00
2023-04-27T16:31:05.223Z,18.90
2023-04-27T16:33:32.387Z,18.02
2023-04-27T16:35:59.549Z,17.98
2023-04-27T16:38:26.920Z,18.20
2023-04-27T16:40:56.189Z,17.20
2023-04-27T16:43:23.159Z,20.23
2023-04-27T16:45:50.234Z,19.70
2023-04-27T16:48:17.711Z,20.15
2023-04-27T16:50:44.765Z,18.00
2023-04-27T16:53:13.870Z,20.60
2023-04-27T16:55:40.943Z,21.88
2023-04-27T16:58:07.940Z,20.88
2023-04-27T17:00:35.005Z,20.48
2023-04-27T17:03:02.062Z,19.70
2023-04-27T17:05:29.294Z,27.15
2023-04-27T17:07:56.412Z,26.30
2023-04-27T17:10:23.583Z,25.58
2023-04-27T17:12:51.347Z,22.92
2023-04-27T17:15:18.692Z,29.85
2023-04-27T17:17:45.827Z,27.30
2023-04-27T17:20:13.426Z,23.58
2023-04-27T17:22:40.546Z,26.75
2023-04-27T17:25:08.738Z,22.50
2023-04-27T17:27:35.976Z,23.70
2023-04-27T17:30:03.072Z,22.52
2023-04-27T17:32:30.074Z,21.13
2023-04-27T17:34:57.795Z,25.38
2023-04-27T17:37:24.769Z,23.58
2023-04-27T17:39:53.111Z,23.23
2023-04-27T17:42:20.031Z,19.58
2023-04-27T17:44:47.015Z,21.35
2023-04-27T17:47:14.028Z,23.60
2023-04-27T17:49:41.244Z,21.98
2023-04-27T17:52:08.310Z,22.73
2023-04-27T17:54:35.254Z,23.40
2023-04-27T17:57:02.243Z,22.23
2023-04-27T17:59:29.298Z,21.15
2023-04-27T18:01:56.311Z,23.25
2023-04-27T18:04:23.388Z,24.80
2023-04-27T18:06:50.581Z,24.45
2023-04-27T18:09:17.802Z,24.17
2023-04-27T18:11:44.781Z,22.42
2023-04-27T18:14:11.823Z,24.17
2023-04-27T18:16:38.906Z,23.45
2023-04-27T18:19:05.857Z,23.23
2023-04-27T18:21:33.070Z,23.27
2023-04-27T18:24:00.052Z,26.83
2023-04-27T18:26:27.044Z,21.85
2023-04-27T18:28:54.016Z,22.73
2023-04-27T18:31:21.272Z,25.00
2023-04-27T18:33:48.362Z,22.40
2023-04-27T18:36:15.439Z,25.33
2023-04-27T18:38:42.476Z,26.88
2023-04-27T18:41:09.459Z,28.02
2023-04-27T18:43:36.993Z,24.75
2023-04-27T18:46:04.619Z,27.02
2023-04-27T18:48:32.485Z,27.10
2023-04-27T18:50:59.498Z,21.83
2023-04-27T18:53:27.198Z,24.45
2023-04-27T18:55:54.203Z,23.30
2023-04-27T18:58:21.248Z,26.98
2023-04-27T19:00:48.203Z,23.05
2023-04-27T19:03:15.392Z,22.23
2023-04-27T19:05:45.692Z,22.85
2023-04-27T19:08:12.870Z,22.38
2023-04-27T19:10:42.866Z,23.67
2023-04-27T19:13:10.214Z,22.27
2023-04-27T19:15:37.355Z,25.75
2023-04-27T19:18:10.397Z,17.90
2023-04-27T19:20:39.004Z,23.67
2023-04-27T19:23:06.073Z,24.65
2023-04-27T19:25:33.094Z,21.98
2023-04-27T19:28:00.516Z,23.52
2023-04-27T19:30:27.788Z,23.73
2023-04-27T19:32:54.781Z,22.17
2023-04-27T19:35:23.950Z,24.58
2023-04-27T19:37:51.383Z,25.42
2023-04-27T19:40:18.474Z,20.52
2023-04-27T19:42:45.754Z,23.45
2023-04-27T19:45:12.834Z,26.35
2023-04-27T19:47:40.092Z,27.63
2023-04-27T19:50:07.412Z,25.08
2023-04-27T19:52:34.369Z,25.48
2023-04-27T19:55:01.496Z,24.67
2023-04-27T19:57:28.614Z,26.25
2023-04-27T19:59:55.582Z,26.85
2023-04-27T20:02:22.933Z,27.45
2023-04-27T20:04:50.290Z,30.95
2023-04-27T20:07:17.545Z,25.98
2023-04-27T20:09:44.487Z,25.45
2023-04-27T20:12:28.915Z,27.45
2023-04-27T20:14:58.477Z,26.75
2023-04-27T20:17:28.211Z,25.90
2023-04-27T20:19:58.100Z,26.13
2023-04-27T20:22:25.120Z,24.13
2023-04-27T20:24:52.028Z,25.05
2023-04-27T20:27:19.063Z,27.88
2023-04-27T20:29:47.463Z,30.95
2023-04-27T20:32:14.478Z,26.25
2023-04-27T20:34:41.420Z,24.13
2023-04-27T20:37:09.761Z,27.27
2023-04-27T20:39:36.899Z,25.05
2023-04-27T20:42:04.288Z,27.20
2023-04-27T20:44:32.490Z,26.33
2023-04-27T20:46:59.530Z,22.27
2023-04-27T20:49:34.359Z,24.88
2023-04-27T20:52:01.838Z,25.40
2023-04-27T20:54:31.135Z,21.73
2023-04-27T20:56:58.155Z,23.13
2023-04-27T20:59:25.251Z,20.75
2023-04-27T21:01:52.242Z,21.88
2023-04-27T21:04:19.638Z,19.30
2023-04-27T21:06:47.133Z,18.58
2023-04-27T21:09:14.068Z,16.80
2023-04-27T21:11:41.092Z,17.17
2023-04-27T21:14:08.016Z,15.63
2023-04-27T21:16:35.006Z,16.10
2023-04-27T21:19:01.944Z,14.68
2023-04-27T21:21:28.900Z,17.98
2023-04-27T21:24:06.797Z,17.38
2023-04-27T21:26:35.015Z,15.20
2023-04-27T21:29:02.614Z,16.48
2023-04-27T21:31:29.590Z,14.30
2023-04-27T21:33:56.574Z,18.38
2023-04-27T21:36:23.512Z,17.67
2023-04-27T21:38:50.643Z,11.48
2023-04-27T21:41:17.658Z,13.50
2023-04-27T21:43:45.212Z,10.23
2023-04-27T21:46:12.233Z,11.20
2023-04-27T21:48:39.165Z,9.43
2023-04-27T21:51:06.153Z,8.50
2023-04-27T21:53:33.179Z,7.22
2023-04-27T21:56:00.219Z,8.40
2023-04-27T21:58:27.266Z,10.57
2023-04-27T22:00:54.266Z,9.45
2023-04-27T22:03:22.029Z,8.95
2023-04-27T22:05:50.403Z,8.55
2023-04-27T22:08:18.010Z,8.52
2023-04-27T22:10:45.372Z,8.23
2023-04-27T22:13:18.378Z,8.50
2023-04-27T22:15:46.730Z,7.38
2023-04-27T22:18:15.060Z,6.40
2023-04-27T22:20:42.630Z,7.45
2023-04-27T22:23:09.805Z,6.72
2023-04-27T22:25:37.029Z,8.73
2023-04-27T22:28:04.013Z,7.82
2023-04-27T22:30:31.037Z,6.68
2023-04-27T22:32:58.067Z,7.75
2023-04-27T22:35:27.512Z,6.97
2023-04-27T22:38:01.314Z,8.48
2023-04-27T22:40:28.442Z,8.35
2023-04-27T22:42:55.659Z,6.82
2023-04-27T22:45:23.159Z,6.35
2023-04-27T22:47:50.288Z,6.05
2023-04-27T22:50:17.381Z,7.57
2023-04-27T22:52:44.449Z,6.88
2023-04-27T22:55:12.178Z,5.97
2023-04-27T22:57:39.641Z,6.15
2023-04-27T23:00:09.204Z,5.75
2023-04-27T23:02:36.303Z,7.05
2023-04-27T23:05:04.048Z,5.60
2023-04-27T23:07:31.008Z,5.72
2023-04-27T23:10:01.092Z,6.18
2023-04-27T23:12:28.322Z,9.20
2023-04-27T23:14:55.290Z,6.75
2023-04-27T23:17:23.517Z,6.10
2023-04-27T23:19:50.519Z,7.65
2023-04-27T23:22:17.490Z,8.55
2023-04-27T23:24:44.397Z,6.90
2023-04-27T23:27:11.491Z,5.75
2023-04-27T23:29:39.531Z,5.90
2023-04-27T23:32:06.622Z,5.38
2023-04-27T23:34:33.555Z,6.03
2023-04-27T23:37:01.007Z,5.22
2023-04-27T23:39:28.414Z,5.80
2023-04-27T23:41:55.424Z,5.63
2023-04-27T23:44:22.468Z,6.80
2023-04-27T23:46:49.480Z,6.80
2023-04-27T23:49:16.461Z,6.00
2023-04-27T23:51:43.468Z,5.65
2023-04-27T23:54:10.451Z,6.63
2023-04-27T23:56:37.412Z,6.45
2023-04-27T23:59:04.338Z,5.47
